createdAt,value
2023-05-18T00:02:50.712Z,12.51
2023-05-18T00:07:03.646Z,12.46
2023-05-18T00:09:26.584Z,12.47
2023-05-18T00:12:35.166Z,12.46
2023-05-18T00:15:51.819Z,12.44
2023-05-18T00:22:34.048Z,12.44
2023-05-18T00:25:43.896Z,12.43
2023-05-18T00:28:53.235Z,12.42
2023-05-18T00:31:42.840Z,12.38
2023-05-18T00:34:50.783Z,12.34
2023-05-18T00:38:01.145Z,12.28
2023-05-18T00:41:10.073Z,12.25
2023-05-18T00:48:16.278Z,12.18
2023-05-18T00:51:23.284Z,12.16
2023-05-18T00:54:39.899Z,12.16
2023-05-18T00:57:42.323Z,12.11
2023-05-18T01:00:31.028Z,12.01
2023-05-18T01:03:24.615Z,11.89
2023-05-18T01:06:41.859Z,11.79
2023-05-18T01:09:44.501Z,11.71
2023-05-18T01:16:22.697Z,11.73
2023-05-18T01:19:30.754Z,11.76
2023-05-18T01:22:49.635Z,11.76
2023-05-18T01:27:18.419Z,11.76
2023-05-18T01:30:30.507Z,11.76
2023-05-18T01:33:54.938Z,11.77
2023-05-18T01:37:03.475Z,11.79
2023-05-18T01:39:55.037Z,11.84
2023-05-18T01:42:43.710Z,11.89
2023-05-18T01:45:45.735Z,11.94
2023-05-18T01:48:28.175Z,11.98
2023-05-18T01:51:14.712Z,12.00
2023-05-18T01:54:13.248Z,12.00
2023-05-18T01:56:54.766Z,12.01
2023-05-18T01:59:43.897Z,11.99
2023-05-18T02:02:25.754Z,11.95
2023-05-18T02:05:00.496Z,11.90
2023-05-18T02:07:36.923Z,11.86
2023-05-18T02:10:11.088Z,11.80
2023-05-18T02:13:10.729Z,11.76
2023-05-18T02:16:02.747Z,11.70
2023-05-18T02:18:36.744Z,11.63
2023-05-18T02:25:11.280Z,11.57
2023-05-18T02:27:41.997Z,11.53
2023-05-18T02:30:11.660Z,11.51
2023-05-18T02:32:42.924Z,11.49
2023-05-18T02:35:20.134Z,11.48
2023-05-18T02:37:51.007Z,11.47
2023-05-18T02:40:48.480Z,11.42
2023-05-18T02:43:19.508Z,11.42
2023-05-18T02:45:51.520Z,11.45
2023-05-18T02:48:34.248Z,11.46
2023-05-18T02:51:16.371Z,11.48
2023-05-18T02:53:55.016Z,11.48
2023-05-18T02:56:23.616Z,11.47
2023-05-18T02:58:58.036Z,11.47
2023-05-18T03:01:37.424Z,11.46
2023-05-18T03:04:09.346Z,11.43
2023-05-18T03:06:38.471Z,11.39
2023-05-18T03:09:09.738Z,11.32
2023-05-18T03:11:37.838Z,11.23
2023-05-18T03:14:06.051Z,11.18
2023-05-18T03:16:38.986Z,11.13
2023-05-18T03:19:07.449Z,11.10
2023-05-18T03:21:45.298Z,11.06
2023-05-18T03:24:51.485Z,11.01
2023-05-18T03:27:25.849Z,10.97
2023-05-18T03:29:54.386Z,10.95
2023-05-18T03:32:24.766Z,10.92
2023-05-18T03:34:53.185Z,10.89
2023-05-18T03:37:21.206Z,10.87
2023-05-18T03:39:52.123Z,10.83
2023-05-18T03:42:23.528Z,10.79
2023-05-18T03:44:52.357Z,10.77
2023-05-18T03:47:22.287Z,10.74
2023-05-18T03:49:50.175Z,10.72
2023-05-18T03:52:22.327Z,10.71
2023-05-18T03:54:51.559Z,10.70
2023-05-18T03:57:22.833Z,10.71
2023-05-18T04:00:29.169Z,10.72
2023-05-18T04:02:58.031Z,10.73
2023-05-18T04:05:47.495Z,10.74
2023-05-18T04:08:19.316Z,10.75
2023-05-18T04:10:47.877Z,10.72
2023-05-18T04:13:17.129Z,10.67
2023-05-18T04:15:45.008Z,10.62
2023-05-18T04:18:13.896Z,10.62
2023-05-18T04:20:42.525Z,10.62
2023-05-18T04:23:10.662Z,10.61
2023-05-18T04:25:39.603Z,10.60
2023-05-18T04:28:08.367Z,10.57
2023-05-18T04:30:37.882Z,10.54
2023-05-18T04:33:06.827Z,10.51
2023-05-18T04:35:35.759Z,10.48
2023-05-18T04:38:06.133Z,10.46
2023-05-18T04:40:34.570Z,10.45
2023-05-18T04:43:29.055Z,10.44
2023-05-18T04:45:58.794Z,10.44
2023-05-18T04:48:26.909Z,10.47
2023-05-18T04:50:56.262Z,10.51
2023-05-18T04:53:24.160Z,10.56
2023-05-18T04:55:54.710Z,10.58
2023-05-18T04:58:23.958Z,10.62
2023-05-18T05:00:52.485Z,10.65
2023-05-18T05:03:21.779Z,10.69
2023-05-18T05:09:46.564Z,10.93
2023-05-18T05:12:14.502Z,11.00
2023-05-18T05:14:42.342Z,11.09
2023-05-18T05:17:10.316Z,11.22
2023-05-18T05:19:38.086Z,11.34
2023-05-18T05:22:06.173Z,11.45
2023-05-18T05:24:33.947Z,11.57
2023-05-18T05:27:01.732Z,11.67
2023-05-18T05:29:29.522Z,11.75
2023-05-18T05:31:57.386Z,11.78
2023-05-18T05:34:25.693Z,11.82
2023-05-18T05:36:53.599Z,11.86
2023-05-18T05:39:21.408Z,11.91
2023-05-18T05:41:49.235Z,11.96
2023-05-18T05:44:17.135Z,12.01
2023-05-18T05:46:45.030Z,12.09
2023-05-18T05:49:13.113Z,12.15
2023-05-18T05:51:41.234Z,12.21
2023-05-18T05:54:10.764Z,12.28
2023-05-18T05:56:39.051Z,12.38
2023-05-18T05:59:06.917Z,12.55
2023-05-18T06:01:34.991Z,12.80
2023-05-18T06:04:04.378Z,13.33
2023-05-18T06:06:32.438Z,13.91
2023-05-18T06:09:01.048Z,14.40
2023-05-18T06:11:28.808Z,15.11
2023-05-18T06:13:56.687Z,15.95
2023-05-18T06:16:25.144Z,16.33
2023-05-18T06:18:53.057Z,15.98
2023-05-18T06:21:20.901Z,15.52
2023-05-18T06:23:48.937Z,15.26
2023-05-18T06:26:17.324Z,15.22
2023-05-18T06:28:45.291Z,15.33
2023-05-18T06:31:13.105Z,15.46
2023-05-18T06:33:41.395Z,15.57
2023-05-18T06:36:09.497Z,15.86
2023-05-18T06:38:37.647Z,16.35
2023-05-18T06:41:05.570Z,16.74
2023-05-18T06:43:33.603Z,16.96
2023-05-18T06:46:01.596Z,17.13
2023-05-18T06:48:29.652Z,17.24
2023-05-18T06:50:57.736Z,17.30
2023-05-18T06:53:26.500Z,17.39
2023-05-18T06:55:54.301Z,17.52
2023-05-18T06:58:22.797Z,17.65
2023-05-18T07:00:51.264Z,17.81
2023-05-18T07:03:19.070Z,17.97
2023-05-18T07:05:47.083Z,17.99
2023-05-18T07:08:14.850Z,17.88
2023-05-18T07:10:42.800Z,17.80
2023-05-18T07:13:10.865Z,17.82
2023-05-18T07:15:38.991Z,17.71
2023-05-18T07:18:08.199Z,17.46
2023-05-18T07:20:36.259Z,17.32
2023-05-18T07:23:04.287Z,17.38
2023-05-18T07:25:32.552Z,17.47
2023-05-18T07:28:00.716Z,17.58
2023-05-18T07:30:28.839Z,17.56
2023-05-18T07:32:56.956Z,17.68
2023-05-18T07:35:26.510Z,17.79
2023-05-18T07:37:54.360Z,17.77
2023-05-18T07:40:22.408Z,17.86
2023-05-18T07:42:50.383Z,18.00
2023-05-18T07:45:18.082Z,18.03
2023-05-18T07:47:45.972Z,18.13
2023-05-18T07:50:13.847Z,18.26
2023-05-18T07:52:41.640Z,18.39
2023-05-18T07:55:09.814Z,18.54
2023-05-18T07:57:37.611Z,18.64
2023-05-18T08:00:06.704Z,18.77
2023-05-18T08:02:34.606Z,18.89
2023-05-18T08:05:03.000Z,18.85
2023-05-18T08:07:33.016Z,18.84
2023-05-18T08:10:01.101Z,18.86
2023-05-18T08:12:30.072Z,18.74
2023-05-18T08:14:57.945Z,18.81
2023-05-18T08:17:26.193Z,19.01
2023-05-18T08:19:54.760Z,19.09
2023-05-18T08:22:22.575Z,19.01
2023-05-18T08:24:50.864Z,19.06
2023-05-18T08:27:20.075Z,19.15
2023-05-18T08:29:47.821Z,19.22
2023-05-18T08:32:15.911Z,19.30
2023-05-18T08:34:43.991Z,19.27
2023-05-18T08:37:11.749Z,19.26
2023-05-18T08:39:40.490Z,19.24
2023-05-18T08:42:16.295Z,19.18
2023-05-18T08:44:51.730Z,19.23
2023-05-18T08:47:26.145Z,19.30
2023-05-18T08:49:56.087Z,19.46
2023-05-18T08:52:27.854Z,19.63
2023-05-18T08:54:57.426Z,19.79
2023-05-18T08:57:26.484Z,19.97
2023-05-18T08:59:55.990Z,20.17
2023-05-18T09:02:24.358Z,20.30
2023-05-18T09:04:53.410Z,20.44
2023-05-18T09:07:22.030Z,20.60
2023-05-18T09:09:49.858Z,20.68
2023-05-18T09:12:18.963Z,20.84
2023-05-18T09:14:46.960Z,21.08
2023-05-18T09:17:14.830Z,21.36
2023-05-18T09:19:42.643Z,21.55
2023-05-18T09:22:10.886Z,21.71
2023-05-18T09:24:39.077Z,21.94
2023-05-18T09:27:06.922Z,22.11
2023-05-18T09:29:34.797Z,22.27
2023-05-18T09:32:06.952Z,22.40
2023-05-18T09:34:42.299Z,22.51
2023-05-18T09:37:10.040Z,22.69
2023-05-18T09:39:37.898Z,22.85
2023-05-18T09:42:05.968Z,23.05
2023-05-18T09:44:34.309Z,23.21
2023-05-18T09:47:03.041Z,23.11
2023-05-18T09:49:31.576Z,22.84
2023-05-18T09:52:00.369Z,22.89
2023-05-18T09:54:28.358Z,22.97
2023-05-18T09:57:09.586Z,22.69
2023-05-18T09:59:38.645Z,22.62
2023-05-18T10:02:08.950Z,22.50
2023-05-18T10:04:40.621Z,22.53
2023-05-18T10:07:12.620Z,22.63
2023-05-18T10:09:41.690Z,22.61
2023-05-18T10:12:13.523Z,22.75
2023-05-18T10:14:43.250Z,22.87
2023-05-18T10:17:16.781Z,22.97
2023-05-18T10:19:46.645Z,23.04
2023-05-18T10:22:19.722Z,23.06
2023-05-18T10:24:50.921Z,23.05
2023-05-18T10:27:22.100Z,23.17
2023-05-18T10:29:52.524Z,23.22
2023-05-18T10:32:23.399Z,23.08
2023-05-18T10:34:52.951Z,22.94
2023-05-18T10:37:22.296Z,22.84
2023-05-18T10:39:54.968Z,22.66
2023-05-18T10:42:23.773Z,22.58
2023-05-18T10:44:53.351Z,22.59
2023-05-18T10:47:22.225Z,22.55
2023-05-18T10:49:50.150Z,22.62
2023-05-18T10:52:18.807Z,22.80
2023-05-18T10:54:47.290Z,22.87
2023-05-18T10:57:16.581Z,22.78
2023-05-18T10:59:47.449Z,22.74
2023-05-18T11:02:18.051Z,22.75
2023-05-18T11:04:48.141Z,22.80
2023-05-18T11:07:16.043Z,22.74
2023-05-18T11:09:44.779Z,22.56
2023-05-18T11:12:14.161Z,22.60
2023-05-18T11:14:49.517Z,22.84
2023-05-18T11:17:25.066Z,23.09
2023-05-18T11:20:02.293Z,23.23
2023-05-18T11:22:49.195Z,23.43
2023-05-18T11:25:26.696Z,23.49
2023-05-18T11:27:56.645Z,23.38
2023-05-18T11:30:45.116Z,23.18
2023-05-18T11:33:27.167Z,22.78
2023-05-18T11:35:57.938Z,22.53
2023-05-18T11:38:45.988Z,22.29
2023-05-18T11:41:33.020Z,22.30
2023-05-18T11:44:06.759Z,22.53
2023-05-18T11:46:34.865Z,22.85
2023-05-18T11:49:03.713Z,23.06
2023-05-18T11:51:32.718Z,23.14
2023-05-18T11:54:01.204Z,23.22
2023-05-18T11:56:35.554Z,23.30
2023-05-18T11:59:31.780Z,23.24
2023-05-18T12:02:01.246Z,23.35
2023-05-18T12:04:30.198Z,23.62
2023-05-18T12:06:58.573Z,23.96
2023-05-18T12:09:27.323Z,24.01
2023-05-18T12:11:55.590Z,23.94
2023-05-18T12:14:23.641Z,23.88
2023-05-18T12:16:52.177Z,23.95
2023-05-18T12:19:22.267Z,24.15
2023-05-18T12:21:50.709Z,24.42
2023-05-18T12:24:18.545Z,24.66
2023-05-18T12:26:46.859Z,25.07
2023-05-18T12:29:20.184Z,25.27
2023-05-18T12:31:48.220Z,25.44
2023-05-18T12:34:16.196Z,25.76
2023-05-18T12:37:02.653Z,26.04
2023-05-18T12:39:32.346Z,25.94
2023-05-18T12:42:12.306Z,25.95
2023-05-18T12:44:46.310Z,25.91
2023-05-18T12:47:14.998Z,25.90
2023-05-18T12:49:43.855Z,25.98
2023-05-18T12:52:15.615Z,26.28
2023-05-18T12:54:50.459Z,26.59
2023-05-18T12:57:21.556Z,26.65
2023-05-18T12:59:53.283Z,26.57
2023-05-18T13:02:35.877Z,26.47
2023-05-18T13:05:10.352Z,26.32
2023-05-18T13:07:42.567Z,26.19
2023-05-18T13:10:11.929Z,26.15
2023-05-18T13:12:41.370Z,26.09
2023-05-18T13:15:23.258Z,26.05
2023-05-18T13:18:03.731Z,26.03
2023-05-18T13:20:37.883Z,26.05
2023-05-18T13:23:08.029Z,26.27
2023-05-18T13:25:36.542Z,26.57
2023-05-18T13:28:05.706Z,26.97
2023-05-18T13:30:33.792Z,27.34
2023-05-18T13:33:12.387Z,27.48
2023-05-18T13:35:42.412Z,27.37
2023-05-18T13:38:11.206Z,27.18
2023-05-18T13:40:39.599Z,26.79
2023-05-18T13:43:08.816Z,26.17
2023-05-18T13:45:43.938Z,25.73
2023-05-18T13:48:14.593Z,25.38
2023-05-18T13:51:06.179Z,25.13
2023-05-18T13:53:42.018Z,25.16
2023-05-18T13:56:12.978Z,25.07
2023-05-18T13:58:46.608Z,25.07
2023-05-18T14:01:17.921Z,25.13
2023-05-18T14:03:55.973Z,25.13
2023-05-18T14:06:24.100Z,25.07
2023-05-18T14:08:54.686Z,25.12
2023-05-18T14:11:38.355Z,25.09
2023-05-18T14:14:38.549Z,25.07
2023-05-18T14:21:07.853Z,24.99
2023-05-18T14:23:35.972Z,25.06
2023-05-18T14:26:15.159Z,25.14
2023-05-18T14:29:13.872Z,25.21
2023-05-18T14:32:21.263Z,25.44
2023-05-18T14:35:03.507Z,25.66
2023-05-18T14:37:38.990Z,25.60
2023-05-18T14:40:15.260Z,25.39
2023-05-18T14:42:50.353Z,25.31
2023-05-18T14:45:32.947Z,25.17
2023-05-18T14:48:41.324Z,25.05
2023-05-18T14:51:22.174Z,24.88
2023-05-18T14:54:30.946Z,24.60
2023-05-18T14:57:12.873Z,24.42
2023-05-18T15:00:23.626Z,24.36
2023-05-18T15:03:21.311Z,24.34
2023-05-18T15:06:22.476Z,24.44
2023-05-18T15:09:31.956Z,24.53
2023-05-18T15:13:33.355Z,24.59
2023-05-18T15:24:36.392Z,24.13
2023-05-18T15:27:38.623Z,24.17
2023-05-18T15:30:47.208Z,24.33
2023-05-18T15:33:47.065Z,24.32
2023-05-18T15:36:58.133Z,24.27
2023-05-18T15:40:10.244Z,24.21
2023-05-18T15:43:06.795Z,24.28
2023-05-18T15:46:15.311Z,24.28
2023-05-18T15:49:23.736Z,24.23
2023-05-18T15:52:32.256Z,24.06
2023-05-18T15:55:40.554Z,24.08
2023-05-18T15:58:49.019Z,24.07
2023-05-18T16:01:57.491Z,23.98
2023-05-18T16:05:06.339Z,23.85
2023-05-18T16:08:23.023Z,23.69
2023-05-18T16:11:06.428Z,23.65
2023-05-18T16:14:25.023Z,23.54
2023-05-18T16:17:37.218Z,23.44
2023-05-18T16:20:45.964Z,23.34
2023-05-18T16:32:08.990Z,22.80
2023-05-18T16:32:23.504Z,23.19
2023-05-18T16:35:17.661Z,22.63
2023-05-18T16:38:19.744Z,22.45
2023-05-18T16:41:28.948Z,22.37
2023-05-18T16:44:38.001Z,22.26
2023-05-18T16:47:29.679Z,22.10
2023-05-18T16:50:49.912Z,21.99
2023-05-18T16:53:59.090Z,21.93
2023-05-18T17:00:31.423Z,21.69
2023-05-18T17:03:40.194Z,21.55
2023-05-18T17:10:39.950Z,21.40
2023-05-18T17:13:57.266Z,21.41
2023-05-18T17:20:40.672Z,21.39
2023-05-18T17:23:49.297Z,21.35
2023-05-18T17:26:57.861Z,21.30
2023-05-18T17:30:06.420Z,21.28
2023-05-18T17:33:15.029Z,21.24
2023-05-18T17:36:16.125Z,21.15
2023-05-18T17:39:24.547Z,21.07
2023-05-18T17:41:54.524Z,21.04
2023-05-18T17:44:44.604Z,20.99
2023-05-18T17:47:48.438Z,20.88
2023-05-18T17:50:56.828Z,20.76
2023-05-18T17:53:58.175Z,20.63
2023-05-18T17:57:06.657Z,20.56
2023-05-18T18:00:15.015Z,20.43
2023-05-18T18:03:23.974Z,20.32
2023-05-18T18:06:25.870Z,20.26
2023-05-18T18:09:34.243Z,20.21
2023-05-18T18:12:42.642Z,20.16
2023-05-18T18:15:51.222Z,20.08
2023-05-18T18:18:50.609Z,20.01
2023-05-18T18:21:38.982Z,19.91
2023-05-18T18:24:47.404Z,19.82
2023-05-18T18:27:58.068Z,19.73
2023-05-18T18:31:07.796Z,19.65
2023-05-18T18:34:16.400Z,19.59
2023-05-18T18:37:27.023Z,19.49
2023-05-18T18:40:28.162Z,19.41
2023-05-18T18:43:36.646Z,19.35
2023-05-18T18:46:27.176Z,19.31
2023-05-18T18:49:35.660Z,19.29
2023-05-18T18:52:44.075Z,19.26
2023-05-18T18:55:35.227Z,19.24
2023-05-18T18:58:43.897Z,19.22
2023-05-18T19:01:32.314Z,19.19
2023-05-18T19:04:41.022Z,19.16
2023-05-18T19:07:34.948Z,19.11
2023-05-18T19:10:43.424Z,19.06
2023-05-18T19:13:51.721Z,19.01
2023-05-18T19:17:02.628Z,18.93
2023-05-18T19:20:11.031Z,18.83
2023-05-18T19:23:19.568Z,18.71
2023-05-18T19:26:30.339Z,18.61
2023-05-18T19:29:31.838Z,18.54
2023-05-18T19:32:40.724Z,18.47
2023-05-18T19:35:40.617Z,18.38
2023-05-18T19:38:47.961Z,18.28
2023-05-18T19:41:58.521Z,18.16
2023-05-18T19:45:06.923Z,18.02
2023-05-18T19:48:15.646Z,17.87
2023-05-18T19:51:26.778Z,17.72
2023-05-18T19:54:35.448Z,17.60
2023-05-18T19:57:44.712Z,17.49
2023-05-18T20:00:53.161Z,17.42
2023-05-18T20:04:01.846Z,17.34
2023-05-18T20:07:10.258Z,17.25
2023-05-18T20:10:18.613Z,17.20
2023-05-18T20:13:27.085Z,17.15
2023-05-18T20:16:35.552Z,17.11
2023-05-18T20:19:38.500Z,17.07
2023-05-18T20:22:47.045Z,17.01
2023-05-18T20:25:55.541Z,16.97
2023-05-18T20:29:03.937Z,16.92
2023-05-18T20:32:13.619Z,16.90
2023-05-18T20:35:22.013Z,16.89
2023-05-18T20:38:30.632Z,16.84
2023-05-18T20:41:39.513Z,16.80
2023-05-18T20:44:48.289Z,16.74
2023-05-18T20:47:56.899Z,16.69
2023-05-18T20:51:01.899Z,16.65
2023-05-18T20:53:50.297Z,16.60
2023-05-18T20:56:58.742Z,16.55
2023-05-18T21:00:01.974Z,16.51
2023-05-18T21:03:10.191Z,16.47
2023-05-18T21:06:18.755Z,16.43
2023-05-18T21:09:27.148Z,16.39
2023-05-18T21:12:28.296Z,16.38
2023-05-18T21:15:19.073Z,16.35
2023-05-18T21:18:27.621Z,16.29
2023-05-18T21:21:35.964Z,16.26
2023-05-18T21:24:44.550Z,16.25
2023-05-18T21:27:54.466Z,16.24
2023-05-18T21:31:02.947Z,16.22
2023-05-18T21:33:52.818Z,16.20
2023-05-18T21:37:01.359Z,16.18
2023-05-18T21:39:58.168Z,16.15
2023-05-18T21:43:06.771Z,16.11
2023-05-18T21:46:15.211Z,16.07
2023-05-18T21:49:06.303Z,16.02
2023-05-18T21:52:14.685Z,15.96
2023-05-18T21:55:23.299Z,15.87
2023-05-18T21:58:31.779Z,15.78
2023-05-18T22:01:40.327Z,15.69
2023-05-18T22:04:27.100Z,15.58
2023-05-18T22:07:24.528Z,15.48
2023-05-18T22:10:33.248Z,15.39
2023-05-18T22:13:43.936Z,15.30
2023-05-18T22:16:42.318Z,15.25
2023-05-18T22:19:52.942Z,15.21
2023-05-18T22:23:01.296Z,15.18
2023-05-18T22:26:09.806Z,15.13
2023-05-18T22:29:18.285Z,15.07
2023-05-18T22:32:05.278Z,15.02
2023-05-18T22:35:12.630Z,14.95
2023-05-18T22:38:17.867Z,14.87
2023-05-18T22:41:26.359Z,14.80
2023-05-18T22:44:35.039Z,14.73
2023-05-18T22:47:43.449Z,14.70
2023-05-18T22:50:52.220Z,14.66
2023-05-18T22:54:01.100Z,14.63
2023-05-18T22:57:09.766Z,14.57
2023-05-18T23:00:18.217Z,14.58
2023-05-18T23:03:26.777Z,14.60
2023-05-18T23:06:35.460Z,14.61
2023-05-18T23:09:43.886Z,14.61
2023-05-18T23:12:36.966Z,14.59
2023-05-18T23:15:45.580Z,14.52
2023-05-18T23:18:49.025Z,14.46
2023-05-18T23:21:57.661Z,14.41
2023-05-18T23:25:06.111Z,14.34
2023-05-18T23:28:14.496Z,14.24
2023-05-18T23:31:26.069Z,14.12
2023-05-18T23:34:24.908Z,14.02
2023-05-18T23:37:33.352Z,13.96
2023-05-18T23:40:43.193Z,13.89
2023-05-18T23:43:51.733Z,13.84
2023-05-18T23:47:00.147Z,13.82
2023-05-18T23:50:08.739Z,13.80
2023-05-18T23:53:17.154Z,13.82
2023-05-18T23:56:25.868Z,13.83
2023-05-18T23:59:34.422Z,13.78
